createdAt,value
2022-10-28T00:01:18.835Z,100890.72
2022-10-28T00:03:48.972Z,100891.56
2022-10-28T00:06:17.383Z,100888.91
2022-10-28T00:08:45.010Z,100903.19
2022-10-28T00:11:13.398Z,100830.69
2022-10-28T00:13:40.917Z,100900.59
2022-10-28T00:16:09.545Z,100898.81
2022-10-28T00:18:37.025Z,100897.94
2022-10-28T00:21:07.345Z,100897.94
2022-10-28T00:23:34.806Z,100885.56
2022-10-28T00:26:07.027Z,100815.75
2022-10-28T00:28:34.560Z,100884.78
2022-10-28T00:31:06.502Z,100894.56
2022-10-28T00:33:33.986Z,100865.03
2022-10-28T00:36:14.196Z,100859.53
2022-10-28T00:38:41.878Z,100837.22
2022-10-28T00:41:09.508Z,100860.56
2022-10-28T00:43:38.108Z,100891.25
2022-10-28T00:46:06.410Z,100903.69
2022-10-28T00:48:33.868Z,100893.91
2022-10-28T00:51:01.295Z,100903.69
2022-10-28T00:53:30.649Z,100899.22
2022-10-28T00:55:58.145Z,100888.38
2022-10-28T00:58:25.897Z,100902.06
2022-10-28T01:00:53.368Z,100893.22
2022-10-28T01:03:20.813Z,100908.31
2022-10-28T01:05:48.912Z,100845.44
2022-10-28T01:08:16.386Z,100881.78
2022-10-28T01:10:58.544Z,100883.59
2022-10-28T01:13:34.127Z,100794.06
2022-10-28T01:16:05.989Z,100871.28
2022-10-28T01:18:36.542Z,100867.78
2022-10-28T01:21:38.785Z,100853.59
2022-10-28T01:24:16.665Z,100868.63
2022-10-28T01:27:07.678Z,100841.41
2022-10-28T01:30:15.790Z,100862.47
2022-10-28T01:32:52.305Z,100874.03
2022-10-28T01:35:23.154Z,100854.28
2022-10-28T01:37:56.354Z,100860.97
2022-10-28T01:40:27.630Z,100862.63
2022-10-28T01:42:56.566Z,100858.16
2022-10-28T01:45:26.054Z,100847.00
2022-10-28T01:47:57.080Z,100847.59
2022-10-28T01:50:25.798Z,100855.56
2022-10-28T01:52:53.919Z,100799.50
2022-10-28T01:55:23.521Z,100838.84
2022-10-28T01:57:51.542Z,100839.69
2022-10-28T02:00:19.277Z,100836.19
2022-10-28T02:02:47.397Z,100836.19
2022-10-28T02:05:44.851Z,100834.28
2022-10-28T02:08:36.365Z,100835.31
2022-10-28T02:11:20.768Z,100834.44
2022-10-28T02:13:52.964Z,100832.75
2022-10-28T02:16:22.962Z,100836.34
2022-10-28T02:18:54.473Z,100818.25
2022-10-28T02:21:25.959Z,100731.38
2022-10-28T02:23:54.227Z,100800.28
2022-10-28T02:26:22.836Z,100820.72
2022-10-28T02:28:53.825Z,100761.56
2022-10-28T02:31:23.529Z,100828.38
2022-10-28T02:33:52.416Z,100767.13
2022-10-28T02:36:19.886Z,100826.72
2022-10-28T02:38:49.684Z,100815.22
2022-10-28T02:41:18.319Z,100741.53
2022-10-28T02:43:45.738Z,100806.38
2022-10-28T02:46:13.159Z,100802.09
2022-10-28T02:48:41.643Z,100798.47
2022-10-28T02:51:11.250Z,100726.19
2022-10-28T02:53:42.575Z,100723.72
2022-10-28T02:56:11.342Z,100800.28
2022-10-28T02:58:39.384Z,100787.31
2022-10-28T03:01:07.106Z,100788.78
2022-10-28T03:03:34.586Z,100788.78
2022-10-28T03:06:02.060Z,100782.78
2022-10-28T03:08:29.498Z,100722.66
2022-10-28T03:10:56.931Z,100781.72
2022-10-28T03:13:25.704Z,100784.38
2022-10-28T03:15:53.147Z,100781.72
2022-10-28T03:18:20.602Z,100791.44
2022-10-28T03:20:48.149Z,100749.88
2022-10-28T03:23:15.615Z,100784.72
2022-10-28T03:25:43.065Z,100794.19
2022-10-28T03:28:10.502Z,100806.56
2022-10-28T03:30:39.281Z,100791.53
2022-10-28T03:33:06.729Z,100788.97
2022-10-28T03:35:34.182Z,100772.13
2022-10-28T03:38:01.653Z,100769.47
2022-10-28T03:40:29.080Z,100763.34
2022-10-28T03:42:56.873Z,100749.97
2022-10-28T03:45:24.454Z,100771.25
2022-10-28T03:47:53.562Z,100689.91
2022-10-28T03:50:21.220Z,100743.91
2022-10-28T03:52:48.661Z,100743.91
2022-10-28T03:55:16.243Z,100748.16
2022-10-28T03:57:43.702Z,100745.50
2022-10-28T04:00:12.026Z,100765.00
2022-10-28T04:02:39.467Z,100754.44
2022-10-28T04:05:08.939Z,100750.84
2022-10-28T04:07:36.416Z,100765.84
2022-10-28T04:10:03.896Z,100765.00
2022-10-28T04:12:31.328Z,100756.16
2022-10-28T04:14:58.754Z,100763.19
2022-10-28T04:17:26.211Z,100755.28
2022-10-28T04:19:53.631Z,100748.09
2022-10-28T04:22:22.434Z,100760.53
2022-10-28T04:24:49.874Z,100745.50
2022-10-28T04:27:17.323Z,100738.41
2022-10-28T04:29:44.779Z,100746.38
2022-10-28T04:32:12.248Z,100741.91
2022-10-28T04:34:39.680Z,100734.00
2022-10-28T04:37:07.117Z,100724.22
2022-10-28T04:39:35.874Z,100720.03
2022-10-28T04:42:03.297Z,100718.91
2022-10-28T04:44:30.717Z,100725.09
2022-10-28T04:46:58.164Z,100720.69
2022-10-28T04:49:25.596Z,100720.69
2022-10-28T04:51:53.036Z,100718.91
2022-10-28T04:54:20.467Z,100720.69
2022-10-28T04:56:49.255Z,100713.56
2022-10-28T04:59:16.741Z,100713.75
2022-10-28T05:01:44.287Z,100715.47
2022-10-28T05:04:11.860Z,100713.66
2022-10-28T05:06:39.309Z,100709.28
2022-10-28T05:09:06.722Z,100716.31
2022-10-28T05:11:34.149Z,100714.53
2022-10-28T05:14:02.921Z,100706.63
2022-10-28T05:16:30.361Z,100698.66
2022-10-28T05:18:57.836Z,100712.78
2022-10-28T05:21:25.375Z,100703.09
2022-10-28T05:23:52.849Z,100698.03
2022-10-28T05:26:20.328Z,100634.41
2022-10-28T05:28:49.950Z,100701.31
2022-10-28T05:31:18.701Z,100711.97
2022-10-28T05:33:46.136Z,100712.72
2022-10-28T05:36:13.571Z,100711.88
2022-10-28T05:38:42.444Z,100697.78
2022-10-28T05:41:09.853Z,100705.84
2022-10-28T05:43:37.309Z,100709.38
2022-10-28T05:46:04.942Z,100715.53
2022-10-28T05:48:33.831Z,100703.28
2022-10-28T05:51:01.269Z,100697.97
2022-10-28T05:53:28.757Z,100694.44
2022-10-28T05:55:56.239Z,100646.50
2022-10-28T05:58:23.694Z,100698.75
2022-10-28T06:00:51.123Z,100695.38
2022-10-28T06:03:18.635Z,100697.09
2022-10-28T06:05:47.486Z,100688.28
2022-10-28T06:08:14.931Z,100695.56
2022-10-28T06:10:42.616Z,100698.03
2022-10-28T06:13:08.606Z,100677.47
2022-10-28T06:15:36.037Z,100704.31
2022-10-28T06:18:04.280Z,100707.00
2022-10-28T06:20:31.762Z,100656.44
2022-10-28T06:23:00.545Z,100709.72
2022-10-28T06:25:27.986Z,100721.28
2022-10-28T06:27:56.080Z,100730.16
2022-10-28T06:30:23.917Z,100717.53
2022-10-28T06:32:51.386Z,100678.94
2022-10-28T06:35:18.869Z,100724.66
2022-10-28T06:37:46.335Z,100721.38
2022-10-28T06:40:15.293Z,100725.63
2022-10-28T06:42:42.735Z,100718.47
2022-10-28T06:45:10.461Z,100718.38
2022-10-28T06:47:41.465Z,100715.63
2022-10-28T06:50:09.797Z,100719.16
2022-10-28T06:52:37.255Z,100721.81
2022-10-28T06:55:05.164Z,100735.91
2022-10-28T06:57:33.932Z,100732.56
2022-10-28T07:00:01.373Z,100693.84
2022-10-28T07:02:28.878Z,100744.56
2022-10-28T07:04:56.418Z,100738.22
2022-10-28T07:07:23.863Z,100746.13
2022-10-28T07:09:51.266Z,100765.50
2022-10-28T07:14:52.409Z,100753.75
2022-10-28T07:17:19.851Z,100755.47
2022-10-28T07:19:47.293Z,100754.41
2022-10-28T07:22:14.735Z,100754.25
2022-10-28T07:24:42.180Z,100749.69
2022-10-28T07:27:09.683Z,100745.16
2022-10-28T07:29:37.135Z,100755.53
2022-10-28T07:32:06.303Z,100744.81
2022-10-28T07:34:33.754Z,100750.03
2022-10-28T07:37:01.193Z,100755.28
2022-10-28T07:39:28.671Z,100750.78
2022-10-28T07:41:56.137Z,100752.53
2022-10-28T07:44:23.619Z,100748.81
2022-10-28T07:46:54.268Z,100752.44
2022-10-28T07:49:26.076Z,100748.03
2022-10-28T07:51:53.506Z,100748.72
2022-10-28T07:54:20.969Z,100752.25
2022-10-28T07:56:48.404Z,100748.72
2022-10-28T07:59:15.834Z,100756.63
2022-10-28T08:01:43.432Z,100755.66
2022-10-28T08:04:10.948Z,100751.22
2022-10-28T08:06:39.700Z,100754.75
2022-10-28T08:09:07.139Z,100751.13
2022-10-28T08:11:34.617Z,100727.88
2022-10-28T08:14:02.541Z,100756.44
2022-10-28T08:16:30.264Z,100753.69
2022-10-28T08:18:57.756Z,100752.56
2022-10-28T08:21:26.953Z,100751.53
2022-10-28T08:23:55.930Z,100699.63
2022-10-28T08:26:23.379Z,100744.16
2022-10-28T08:28:50.845Z,100749.22
2022-10-28T08:31:18.290Z,100749.91
2022-10-28T08:33:46.143Z,100745.25
2022-10-28T08:36:14.189Z,100745.06
2022-10-28T08:38:45.287Z,100743.06
2022-10-28T08:41:22.669Z,100738.34
2022-10-28T08:43:58.094Z,100744.34
2022-10-28T08:46:30.281Z,100691.66
2022-10-28T08:48:57.725Z,100745.59
2022-10-28T08:51:29.456Z,100725.59
2022-10-28T08:53:58.629Z,100745.03
2022-10-28T08:56:30.405Z,100749.22
2022-10-28T08:59:00.155Z,100682.66
2022-10-28T09:01:33.400Z,100744.38
2022-10-28T09:04:00.949Z,100750.34
2022-10-28T09:06:28.407Z,100742.19
2022-10-28T09:08:57.466Z,100744.47
2022-10-28T09:11:39.732Z,100752.19
2022-10-28T09:14:13.687Z,100749.31
2022-10-28T09:16:44.090Z,100710.47
2022-10-28T09:19:25.897Z,100730.00
2022-10-28T09:21:57.294Z,100747.91
2022-10-28T09:24:26.718Z,100636.78
2022-10-28T09:26:57.282Z,100742.94
2022-10-28T09:29:34.488Z,100737.44
2022-10-28T09:32:04.124Z,100744.53
2022-10-28T09:34:35.724Z,100702.97
2022-10-28T09:37:06.104Z,100685.72
2022-10-28T09:39:36.607Z,100746.50
2022-10-28T09:42:05.405Z,100752.50
2022-10-28T09:44:37.389Z,100756.78
2022-10-28T09:47:05.732Z,100746.75
2022-10-28T09:49:36.022Z,100735.69
2022-10-28T09:52:06.267Z,100732.94
2022-10-28T09:54:35.116Z,100705.63
2022-10-28T09:57:02.907Z,100735.41
2022-10-28T09:59:31.685Z,100742.63
2022-10-28T10:01:59.236Z,100729.56
2022-10-28T10:04:27.806Z,100737.75
2022-10-28T10:06:56.201Z,100737.47
2022-10-28T10:09:25.691Z,100742.59
2022-10-28T10:11:54.303Z,100731.91
2022-10-28T10:14:25.759Z,100674.53
2022-10-28T10:16:55.422Z,100738.75
2022-10-28T10:19:22.908Z,100739.44
2022-10-28T10:21:50.921Z,100692.31
2022-10-28T10:24:31.700Z,100679.25
2022-10-28T10:27:00.944Z,100739.88
2022-10-28T10:29:28.396Z,100732.59
2022-10-28T10:32:08.760Z,100735.19
2022-10-28T10:36:58.259Z,100735.19
2022-10-28T10:39:28.477Z,100697.22
2022-10-28T10:41:56.161Z,100730.72
2022-10-28T10:44:26.117Z,100687.69
2022-10-28T10:47:20.540Z,100727.53
2022-10-28T10:49:49.664Z,100722.94
2022-10-28T10:52:19.209Z,100714.94
2022-10-28T10:54:49.501Z,100722.94
2022-10-28T10:57:17.857Z,100720.09
2022-10-28T10:59:46.268Z,100720.94
2022-10-28T11:02:23.524Z,100717.22
2022-10-28T11:04:51.718Z,100715.50
2022-10-28T11:07:19.152Z,100712.81
2022-10-28T11:09:48.744Z,100676.09
2022-10-28T11:12:17.353Z,100711.88
2022-10-28T11:14:55.182Z,100714.34
2022-10-28T11:17:25.634Z,100713.38
2022-10-28T11:19:54.747Z,100702.03
2022-10-28T11:22:36.569Z,100699.06
2022-10-28T11:25:20.218Z,100689.25
2022-10-28T11:27:55.530Z,100686.56
2022-10-28T11:30:28.430Z,100696.28
2022-10-28T11:33:02.214Z,100601.03
2022-10-28T11:35:46.949Z,100693.59
2022-10-28T11:38:20.765Z,100656.78
2022-10-28T11:40:57.033Z,100688.25
2022-10-28T11:43:28.600Z,100684.09
2022-10-28T11:46:00.598Z,100627.78
2022-10-28T11:48:39.644Z,100620.75
2022-10-28T11:51:15.482Z,100631.22
2022-10-28T11:53:55.838Z,100684.00
2022-10-28T11:56:28.735Z,100688.56
2022-10-28T11:59:02.223Z,100683.22
2022-10-28T12:01:36.821Z,100618.28
2022-10-28T12:04:17.359Z,100683.22
2022-10-28T12:07:15.313Z,100682.28
2022-10-28T12:09:50.023Z,100676.94
2022-10-28T12:12:19.525Z,100682.28
2022-10-28T12:14:49.445Z,100674.28
2022-10-28T12:17:18.863Z,100671.72
2022-10-28T12:19:48.961Z,100664.84
2022-10-28T12:22:19.351Z,100668.38
2022-10-28T12:24:46.933Z,100674.78
2022-10-28T12:27:18.234Z,100659.25
2022-10-28T12:29:47.687Z,100646.72
2022-10-28T12:32:17.078Z,100677.25
2022-10-28T12:34:46.364Z,100656.91
2022-10-28T12:37:17.356Z,100636.16
2022-10-28T12:39:47.653Z,100678.09
2022-10-28T12:42:16.343Z,100662.25
2022-10-28T12:44:43.782Z,100670.84
2022-10-28T12:47:17.723Z,100653.94
2022-10-28T12:49:54.154Z,100660.16
2022-10-28T12:52:27.921Z,100656.72
2022-10-28T12:54:58.657Z,100651.38
2022-10-28T12:57:26.127Z,100649.69
2022-10-28T12:59:55.042Z,100653.31
2022-10-28T13:02:25.145Z,100650.66
2022-10-28T13:04:52.651Z,100645.31
2022-10-28T13:07:34.255Z,100651.56
2022-10-28T13:10:08.307Z,100640.88
2022-10-28T13:12:57.429Z,100641.84
2022-10-28T13:16:01.872Z,100629.66
2022-10-28T13:18:53.156Z,100589.53
2022-10-28T13:21:25.936Z,100622.91
2022-10-28T13:23:55.824Z,100631.38
2022-10-28T13:26:23.747Z,100628.81
2022-10-28T13:28:52.484Z,100563.16
2022-10-28T13:31:20.342Z,100628.91
2022-10-28T13:33:49.420Z,100624.44
2022-10-28T13:36:18.550Z,100594.66
2022-10-28T13:38:51.221Z,100594.47
2022-10-28T13:41:34.150Z,100631.56
2022-10-28T13:44:29.029Z,100626.34
2022-10-28T13:47:27.728Z,100624.53
2022-10-28T13:50:26.237Z,100619.31
2022-10-28T13:53:43.378Z,100614.78
2022-10-28T13:56:28.209Z,100555.75
2022-10-28T13:58:57.957Z,100615.66
2022-10-28T14:02:01.239Z,100621.88
2022-10-28T14:04:31.101Z,100611.28
2022-10-28T14:07:20.112Z,100551.09
2022-10-28T14:09:47.634Z,100609.34
2022-10-28T14:12:18.389Z,100603.91
2022-10-28T14:14:59.843Z,100604.66
2022-10-28T14:17:29.859Z,100608.31
2022-10-28T14:19:57.288Z,100606.47
2022-10-28T14:22:29.263Z,100573.97
2022-10-28T14:24:56.754Z,100607.34
2022-10-28T14:27:31.684Z,100594.06
2022-10-28T14:30:20.375Z,100604.56
2022-10-28T14:33:03.387Z,100562.53
2022-10-28T14:35:34.736Z,100605.41
2022-10-28T14:38:28.104Z,100590.44
2022-10-28T14:40:57.807Z,100593.88
2022-10-28T14:43:41.073Z,100598.34
2022-10-28T14:46:17.783Z,100597.72
2022-10-28T14:48:49.574Z,100601.13
2022-10-28T14:51:18.584Z,100599.31
2022-10-28T14:53:46.335Z,100595.88
2022-10-28T14:56:19.144Z,100527.94
2022-10-28T14:58:46.618Z,100578.38
2022-10-28T15:01:22.889Z,100592.38
2022-10-28T15:03:51.947Z,100537.09
2022-10-28T15:06:41.603Z,100591.50
2022-10-28T15:09:17.540Z,100553.25
2022-10-28T15:11:46.534Z,100600.72
2022-10-28T15:14:16.052Z,100599.72
2022-10-28T15:16:48.714Z,100605.06
2022-10-28T15:19:17.991Z,100593.63
2022-10-28T15:21:45.463Z,100605.28
2022-10-28T15:24:14.003Z,100606.25
2022-10-28T15:26:41.475Z,100600.91
2022-10-28T15:29:10.573Z,100576.50
2022-10-28T15:32:07.154Z,100602.72
2022-10-28T15:34:34.612Z,100604.72
2022-10-28T15:37:02.106Z,100602.06
2022-10-28T15:39:29.552Z,100600.34
2022-10-28T15:41:57.454Z,100599.59
2022-10-28T15:44:31.734Z,100565.59
2022-10-28T15:46:59.335Z,100609.56
2022-10-28T15:49:34.742Z,100608.56
2022-10-28T15:52:20.978Z,100611.34
2022-10-28T15:54:54.876Z,100615.00
2022-10-28T15:57:23.066Z,100574.44
2022-10-28T15:59:50.609Z,100613.38
2022-10-28T16:02:40.020Z,100621.38
2022-10-28T16:05:37.560Z,100621.47
2022-10-28T16:08:07.797Z,100624.25
2022-10-28T16:10:35.897Z,100587.38
2022-10-28T16:13:07.614Z,100620.75
2022-10-28T16:15:38.110Z,100629.69
2022-10-28T16:18:06.930Z,100638.66
2022-10-28T16:20:35.734Z,100642.31
2022-10-28T16:23:04.103Z,100569.97
2022-10-28T16:25:31.568Z,100651.25
2022-10-28T16:27:59.121Z,100658.44
2022-10-28T16:30:26.663Z,100651.34
2022-10-28T16:32:54.550Z,100655.00
2022-10-28T16:35:22.870Z,100653.19
2022-10-28T16:37:55.426Z,100651.88
2022-10-28T16:43:15.690Z,100664.91
2022-10-28T16:45:43.140Z,100665.88
2022-10-28T16:48:12.403Z,100668.53
2022-10-28T16:50:40.203Z,100673.88
2022-10-28T16:53:10.449Z,100672.19
2022-10-28T16:55:37.901Z,100673.97
2022-10-28T16:58:05.492Z,100679.44
2022-10-28T17:00:32.961Z,100663.81
2022-10-28T17:03:00.748Z,100681.22
2022-10-28T17:05:28.264Z,100693.75
2022-10-28T17:07:56.169Z,100697.34
2022-10-28T17:10:25.309Z,100704.50
2022-10-28T17:12:53.102Z,100698.31
2022-10-28T17:15:20.732Z,100703.66
2022-10-28T17:17:50.235Z,100700.09
2022-10-28T17:20:17.811Z,100695.75
2022-10-28T17:22:45.252Z,100685.38
2022-10-28T17:25:12.710Z,100701.19
2022-10-28T17:27:42.107Z,100699.38
2022-10-28T17:30:10.595Z,100700.41
2022-10-28T17:32:38.104Z,100715.50
2022-10-28T17:35:06.152Z,100711.09
2022-10-28T17:37:34.222Z,100713.75
2022-10-28T17:40:02.355Z,100710.34
2022-10-28T17:42:29.799Z,100703.28
2022-10-28T17:44:58.578Z,100721.88
2022-10-28T17:47:26.003Z,100713.94
2022-10-28T17:49:53.431Z,100717.59
2022-10-28T17:52:20.891Z,100709.78
2022-10-28T17:54:48.340Z,100722.94
2022-10-28T17:57:15.783Z,100727.41
2022-10-28T17:59:43.236Z,100732.72
2022-10-28T18:02:14.348Z,100738.06
2022-10-28T18:04:42.280Z,100732.84
2022-10-28T18:07:09.751Z,100738.16
2022-10-28T18:09:37.268Z,100734.66
2022-10-28T18:12:06.516Z,100746.28
2022-10-28T18:14:34.004Z,100748.13
2022-10-28T18:17:01.442Z,100747.25
2022-10-28T18:19:30.302Z,100733.53
2022-10-28T18:21:57.912Z,100745.53
2022-10-28T18:24:26.046Z,100742.00
2022-10-28T18:26:54.876Z,100744.78
2022-10-28T18:29:22.304Z,100753.66
2022-10-28T18:31:49.736Z,100757.25
2022-10-28T18:34:17.233Z,100645.94
2022-10-28T18:36:46.078Z,100759.91
2022-10-28T18:39:13.495Z,100755.53
2022-10-28T18:41:42.799Z,100759.19
2022-10-28T18:44:11.951Z,100763.53
2022-10-28T18:46:39.458Z,100729.06
2022-10-28T18:49:07.063Z,100761.06
2022-10-28T18:51:34.529Z,100766.41
2022-10-28T18:54:03.281Z,100761.25
2022-10-28T18:56:30.730Z,100773.53
2022-10-28T18:58:58.267Z,100770.03
2022-10-28T19:01:26.402Z,100730.38
2022-10-28T19:03:54.349Z,100721.34
2022-10-28T19:06:22.320Z,100749.94
2022-10-28T19:08:53.333Z,100769.38
2022-10-28T19:11:22.213Z,100771.06
2022-10-28T19:13:49.717Z,100780.03
2022-10-28T19:16:17.154Z,100779.16
2022-10-28T19:18:44.587Z,100783.66
2022-10-28T19:21:13.454Z,100791.78
2022-10-28T19:23:41.082Z,100792.59
2022-10-28T19:26:08.995Z,100770.56
2022-10-28T19:28:41.319Z,100809.47
2022-10-28T19:31:09.471Z,100800.72
2022-10-28T19:33:38.139Z,100802.53
2022-10-28T19:36:06.906Z,100757.31
2022-10-28T19:38:35.084Z,100803.47
2022-10-28T19:41:03.978Z,100760.19
2022-10-28T19:43:31.435Z,100783.25
2022-10-28T19:46:07.710Z,100821.31
2022-10-28T19:48:35.156Z,100821.31
2022-10-28T19:51:02.612Z,100822.25
2022-10-28T19:53:30.057Z,100822.25
2022-10-28T19:55:58.607Z,100822.25
2022-10-28T19:58:26.089Z,100824.06
2022-10-28T20:01:00.607Z,100769.44
2022-10-28T20:03:33.043Z,100839.22
2022-10-28T20:06:03.860Z,100789.88
2022-10-28T20:08:31.283Z,100839.31
2022-10-28T20:10:59.755Z,100859.69
2022-10-28T20:13:27.448Z,100849.13
2022-10-28T20:15:54.949Z,100806.56
2022-10-28T20:18:22.371Z,100868.75
2022-10-28T20:20:51.124Z,100871.41
2022-10-28T20:23:18.536Z,100878.56
2022-10-28T20:25:52.849Z,100835.03
2022-10-28T20:28:20.293Z,100895.53
2022-10-28T20:31:00.714Z,100888.38
2022-10-28T20:33:28.613Z,100884.94
2022-10-28T20:35:57.483Z,100884.94
2022-10-28T20:38:25.228Z,100843.03
2022-10-28T20:40:53.482Z,100900.94
2022-10-28T20:43:22.107Z,100845.13
2022-10-28T20:45:52.974Z,100905.41
2022-10-28T20:48:20.654Z,100895.25
2022-10-28T20:50:52.495Z,100907.25
2022-10-28T20:53:23.154Z,100901.28
2022-10-28T20:55:51.722Z,100911.81
2022-10-28T20:58:19.489Z,100915.34
2022-10-28T21:00:47.009Z,100926.94
2022-10-28T21:03:14.658Z,100926.84
2022-10-28T21:05:42.445Z,100833.19
2022-10-28T21:08:09.945Z,100923.44
2022-10-28T21:10:38.812Z,100924.28
2022-10-28T21:13:06.420Z,100929.66
2022-10-28T21:15:34.912Z,100927.00
2022-10-28T21:18:02.510Z,100922.63
2022-10-28T21:20:30.204Z,100924.44
2022-10-28T21:22:57.818Z,100923.59
2022-10-28T21:25:25.398Z,100880.47
2022-10-28T21:27:54.159Z,100926.34
2022-10-28T21:30:21.635Z,100915.09
2022-10-28T21:32:49.085Z,100923.78
2022-10-28T21:35:16.745Z,100927.28
2022-10-28T21:37:44.161Z,100919.38
2022-10-28T21:40:12.888Z,100923.78
2022-10-28T21:42:40.319Z,100928.31
2022-10-28T21:45:10.199Z,100919.38
2022-10-28T21:47:37.640Z,100917.66
2022-10-28T21:50:05.747Z,100918.63
2022-10-28T21:52:33.179Z,100915.94
2022-10-28T21:55:06.029Z,100917.75
2022-10-28T21:57:42.223Z,100922.31
2022-10-28T22:00:12.649Z,100925.75
2022-10-28T22:02:40.220Z,100913.56
2022-10-28T22:05:08.100Z,100923.94
2022-10-28T22:07:35.531Z,100916.88
2022-10-28T22:10:03.082Z,100924.88
2022-10-28T22:12:30.531Z,100932.13
2022-10-28T22:14:57.963Z,100921.47
2022-10-28T22:17:29.186Z,100919.63
2022-10-28T22:19:56.620Z,100928.59
2022-10-28T22:22:25.760Z,100935.72
2022-10-28T22:24:53.204Z,100959.75
2022-10-28T22:27:20.804Z,100945.66
2022-10-28T22:29:48.266Z,100912.06
2022-10-28T22:32:15.723Z,100936.88
2022-10-28T22:34:44.468Z,100954.50
2022-10-28T22:37:11.916Z,100955.38
2022-10-28T22:39:39.338Z,100969.66
2022-10-28T22:42:07.414Z,100968.78
2022-10-28T22:44:34.833Z,100970.50
2022-10-28T22:47:02.327Z,100967.09
2022-10-28T22:49:29.760Z,100962.66
2022-10-28T22:51:58.514Z,100960.88
2022-10-28T22:54:25.970Z,100968.88
2022-10-28T22:56:53.382Z,100970.69
2022-10-28T22:59:20.819Z,100970.75
2022-10-28T23:01:48.393Z,100974.31
2022-10-28T23:04:16.042Z,100970.75
2022-10-28T23:06:43.480Z,100977.06
2022-10-28T23:09:12.245Z,100979.72
2022-10-28T23:11:39.673Z,100974.47
2022-10-28T23:14:07.195Z,100983.44
2022-10-28T23:16:34.656Z,100973.59
2022-10-28T23:19:02.075Z,100966.56
2022-10-28T23:21:29.504Z,100975.44
2022-10-28T23:23:57.880Z,100905.69
2022-10-28T23:26:26.785Z,100973.78
2022-10-28T23:28:55.281Z,100976.47
2022-10-28T23:31:22.921Z,100982.66
2022-10-28T23:33:50.474Z,100980.16
2022-10-28T23:36:18.001Z,100970.38
2022-10-28T23:38:45.434Z,100976.63
2022-10-28T23:41:15.327Z,100975.78
2022-10-28T23:43:44.131Z,100985.50
2022-10-28T23:46:11.596Z,100989.13
2022-10-28T23:48:39.108Z,100983.78
2022-10-28T23:51:06.963Z,100921.16
2022-10-28T23:53:34.459Z,100968.59
2022-10-28T23:56:01.892Z,100991.88
2022-10-28T23:58:29.485Z,100991.88
